Аэропорт: Национальный аэропорт Минск. Минск

ICAO: UMMS

METAR:
2019/05/26 14:00
UMMS 261400Z 25005G08MPS 210V280 9999 BKN040 15/08 Q1009 R88/CLRD// NOSIG
METAR:
2019/05/26 12:21
TAF TAF UMMS 261104Z 2612/2712 24006G11MPS 9999 BKN020 
      TEMPO 2612/2620 26009G14MPS 5000 -SHRA BKN015CB 
      TEMPO 2620/2706 22006MPS 1200 -RA BR BKN003 
      TEMPO 2706/2712 23009G14MPS 3000 -SHRA BKN015CB